KRE5216 SERO-SEQM
Flight info
| Callsign | KRE5216 |
|---|---|
| Flight time | N/A |
| Altitude | 24000 |
| Route | ANDEL2A ANDEL G675 PAMIS/N0448F230 |
| Aircraft | B722/M-SDFGHRWY/C |
Departure
| Time | 2026-04-11 22:25 |
|---|---|
| Airport | Santa Rosa - Artillery Colonel Victor Larrea International Airport (SERO) |
Arrival
| Time | N/A |
|---|---|
| Airport | Mariscal Sucre International Airport (SEQM) |
| Time | Latitude | Longitude | Altitude | Speed | Heading |
|---|---|---|---|---|---|
| 2026-04-11 21:16 | -3.44431 | -79.99628 | 31 ft | 0 kts | 248° |
| 2026-04-11 22:05 | -3.44429 | -79.99623 | 31 ft | 2 kts | 249° |
| 2026-04-11 22:05 | -3.44425 | -79.99605 | 31 ft | 3 kts | 276° |
| 2026-04-11 22:06 | -3.44427 | -79.99599 | 31 ft | 2 kts | 333° |
| 2026-04-11 22:06 | -3.44431 | -79.99597 | 31 ft | 0 kts | 338° |
| 2026-04-11 22:13 | -3.44430 | -79.99598 | 31 ft | 1 kts | 338° |
| 2026-04-11 22:13 | -3.44407 | -79.99607 | 31 ft | 6 kts | 337° |
| 2026-04-11 22:13 | -3.44353 | -79.99629 | 32 ft | 10 kts | 339° |
| 2026-04-11 22:14 | -3.44303 | -79.99649 | 33 ft | 0 kts | 339° |
| 2026-04-11 22:18 | -3.44294 | -79.99652 | 33 ft | 3 kts | 339° |
| 2026-04-11 22:18 | -3.44256 | -79.99667 | 33 ft | 9 kts | 338° |
| 2026-04-11 22:18 | -3.44204 | -79.99662 | 32 ft | 8 kts | 44° |
| 2026-04-11 22:18 | -3.44165 | -79.99600 | 32 ft | 13 kts | 67° |
| 2026-04-11 22:19 | -3.44124 | -79.99504 | 32 ft | 17 kts | 67° |
| 2026-04-11 22:19 | -3.44081 | -79.99397 | 30 ft | 15 kts | 68° |
| 2026-04-11 22:19 | -3.44046 | -79.99312 | 29 ft | 13 kts | 68° |
| 2026-04-11 22:19 | -3.44003 | -79.99207 | 27 ft | 19 kts | 68° |
| 2026-04-11 22:20 | -3.43948 | -79.99071 | 27 ft | 23 kts | 68° |
| 2026-04-11 22:20 | -3.43896 | -79.98945 | 25 ft | 17 kts | 68° |
| 2026-04-11 22:20 | -3.43863 | -79.98864 | 25 ft | 9 kts | 68° |
| 2026-04-11 22:20 | -3.43843 | -79.98816 | 27 ft | 9 kts | 68° |
| 2026-04-11 22:21 | -3.43817 | -79.98753 | 29 ft | 9 kts | 68° |
| 2026-04-11 22:21 | -3.43801 | -79.98694 | 29 ft | 9 kts | 96° |
| 2026-04-11 22:21 | -3.43824 | -79.98634 | 29 ft | 10 kts | 93° |
| 2026-04-11 22:21 | -3.43792 | -79.98601 | 29 ft | 6 kts | 348° |
| 2026-04-11 22:22 | -3.43765 | -79.98627 | 29 ft | 3 kts | 277° |
| 2026-04-11 22:22 | -3.43771 | -79.98644 | 29 ft | 4 kts | 236° |
| 2026-04-11 22:22 | -3.43778 | -79.98656 | 29 ft | 0 kts | 248° |
| 2026-04-11 22:24 | -3.43779 | -79.98659 | 29 ft | 4 kts | 247° |
| 2026-04-11 22:25 | -3.43851 | -79.98833 | 26 ft | 65 kts | 248° |
| 2026-04-11 22:25 | -3.44130 | -79.99516 | 43 ft | 141 kts | 249° |
| 2026-04-11 22:25 | -3.44534 | -80.00453 | 810 ft | 142 kts | 246° |
| 2026-04-11 22:25 | -3.44975 | -80.01402 | 1591 ft | 156 kts | 246° |
| 2026-04-11 22:26 | -3.45421 | -80.02337 | 2589 ft | 148 kts | 246° |
| 2026-04-11 22:26 | -3.45801 | -80.03284 | 3459 ft | 146 kts | 254° |
| 2026-04-11 22:26 | -3.46085 | -80.04219 | 4278 ft | 135 kts | 252° |
| 2026-04-11 22:26 | -3.46391 | -80.05035 | 5020 ft | 119 kts | 250° |
| 2026-04-11 22:27 | -3.46687 | -80.05850 | 5391 ft | 143 kts | 257° |
| 2026-04-11 22:27 | -3.46447 | -80.06890 | 5625 ft | 175 kts | 310° |
| 2026-04-11 22:27 | -3.45277 | -80.07427 | 5939 ft | 205 kts | 357° |
| 2026-04-11 22:27 | -3.43932 | -80.06934 | 6231 ft | 213 kts | 41° |
| 2026-04-11 22:28 | -3.42974 | -80.05768 | 6548 ft | 223 kts | 51° |
| 2026-04-11 22:28 | -3.41883 | -80.04625 | 6971 ft | 230 kts | 38° |
| 2026-04-11 22:28 | -3.40571 | -80.03717 | 7570 ft | 230 kts | 31° |
| 2026-04-11 22:28 | -3.39213 | -80.02846 | 8123 ft | 233 kts | 33° |
| 2026-04-11 22:29 | -3.37881 | -80.01917 | 8694 ft | 235 kts | 35° |
| 2026-04-11 22:29 | -3.36547 | -80.00962 | 9241 ft | 237 kts | 35° |
| 2026-04-11 22:29 | -3.35184 | -80.00066 | 9786 ft | 239 kts | 26° |
| 2026-04-11 22:29 | -3.33595 | -79.99624 | 10365 ft | 237 kts | 8° |
| 2026-04-11 22:30 | -3.31937 | -79.99469 | 11008 ft | 235 kts | 4° |
| 2026-04-11 22:30 | -3.30342 | -79.99342 | 11611 ft | 233 kts | 6° |
| 2026-04-11 22:30 | -3.28715 | -79.99170 | 12097 ft | 238 kts | 9° |
| 2026-04-11 22:30 | -3.27046 | -79.98990 | 12530 ft | 245 kts | 9° |
| 2026-04-11 22:31 | -3.25335 | -79.98806 | 12957 ft | 250 kts | 9° |
| 2026-04-11 22:31 | -3.23588 | -79.98617 | 13387 ft | 255 kts | 9° |
| 2026-04-11 22:31 | -3.21801 | -79.98434 | 13786 ft | 261 kts | 8° |
| 2026-04-11 22:31 | -3.19965 | -79.98243 | 14162 ft | 270 kts | 8° |
| 2026-04-11 22:32 | -3.18070 | -79.98043 | 14543 ft | 277 kts | 8° |
| 2026-04-11 22:32 | -3.16133 | -79.97838 | 14923 ft | 284 kts | 8° |
| 2026-04-11 22:32 | -3.14131 | -79.97628 | 15262 ft | 293 kts | 8° |
| 2026-04-11 22:32 | -3.12069 | -79.97411 | 15568 ft | 303 kts | 8° |
| 2026-04-11 22:33 | -3.09947 | -79.97187 | 15873 ft | 311 kts | 7° |
| 2026-04-11 22:33 | -3.07769 | -79.96952 | 16172 ft | 319 kts | 7° |
| 2026-04-11 22:33 | -3.05574 | -79.96712 | 16481 ft | 326 kts | 7° |
| 2026-04-11 22:33 | -3.03260 | -79.96462 | 16790 ft | 333 kts | 7° |
| 2026-04-11 22:34 | -3.00970 | -79.96217 | 17094 ft | 339 kts | 7° |
| 2026-04-11 22:34 | -2.98606 | -79.95963 | 17540 ft | 340 kts | 7° |
| 2026-04-11 22:34 | -2.96253 | -79.95709 | 17879 ft | 345 kts | 7° |
| 2026-04-11 22:34 | -2.93854 | -79.95449 | 18255 ft | 347 kts | 7° |
| 2026-04-11 22:35 | -2.91437 | -79.95190 | 18680 ft | 352 kts | 7° |
| 2026-04-11 22:35 | -2.89000 | -79.94927 | 19547 ft | 353 kts | 7° |
| 2026-04-11 22:35 | -2.86549 | -79.94662 | 20369 ft | 357 kts | 7° |
| 2026-04-11 22:35 | -2.84062 | -79.94394 | 21069 ft | 363 kts | 7° |
| 2026-04-11 22:36 | -2.81538 | -79.94124 | 21793 ft | 366 kts | 7° |
| 2026-04-11 22:36 | -2.78981 | -79.93848 | 22477 ft | 371 kts | 7° |
| 2026-04-11 22:36 | -2.76414 | -79.93570 | 22979 ft | 372 kts | 8° |
| 2026-04-11 22:36 | -2.73856 | -79.93292 | 23159 ft | 377 kts | 8° |
| 2026-04-11 22:37 | -2.71236 | -79.93009 | 23464 ft | 379 kts | 8° |
| 2026-04-11 22:37 | -2.68617 | -79.92726 | 23775 ft | 380 kts | 8° |
| 2026-04-11 22:37 | -2.65977 | -79.92440 | 24055 ft | 382 kts | 8° |
| 2026-04-11 22:37 | -2.63328 | -79.92152 | 24331 ft | 384 kts | 8° |
| 2026-04-11 22:38 | -2.60634 | -79.91860 | 24351 ft | 394 kts | 8° |
| 2026-04-11 22:38 | -2.57872 | -79.91560 | 24283 ft | 405 kts | 8° |
| 2026-04-11 22:38 | -2.55040 | -79.91254 | 24165 ft | 416 kts | 8° |
| 2026-04-11 22:38 | -2.52437 | -79.90973 | 24056 ft | 425 kts | 8° |
| 2026-04-11 22:39 | -2.49466 | -79.90652 | 23954 ft | 433 kts | 8° |
| 2026-04-11 22:39 | -2.46485 | -79.90330 | 24140 ft | 431 kts | 8° |
| 2026-04-11 22:39 | -2.43573 | -79.90017 | 23814 ft | 411 kts | 8° |
| 2026-04-11 22:39 | -2.40765 | -79.89714 | 23804 ft | 407 kts | 8° |
| 2026-04-11 22:40 | -2.37938 | -79.89405 | 23800 ft | 409 kts | 8° |
| 2026-04-11 22:40 | -2.35110 | -79.89098 | 23798 ft | 409 kts | 8° |
| 2026-04-11 22:40 | -2.32274 | -79.88792 | 23794 ft | 409 kts | 8° |
| 2026-04-11 22:40 | -2.29447 | -79.88488 | 23790 ft | 409 kts | 8° |
| 2026-04-11 22:41 | -2.26652 | -79.88185 | 23780 ft | 409 kts | 8° |
| 2026-04-11 22:41 | -2.23784 | -79.87873 | 23779 ft | 409 kts | 8° |
| 2026-04-11 22:41 | -2.20955 | -79.87567 | 23768 ft | 410 kts | 8° |
| 2026-04-11 22:41 | -2.18155 | -79.87266 | 23771 ft | 409 kts | 8° |
| 2026-04-11 22:42 | -2.15330 | -79.86947 | 23771 ft | 408 kts | 10° |
| 2026-04-11 22:42 | -2.12593 | -79.86227 | 23763 ft | 406 kts | 23° |
| 2026-04-11 22:42 | -2.10074 | -79.84983 | 23765 ft | 404 kts | 31° |
| 2026-04-11 22:43 | -2.05428 | -79.81871 | 23769 ft | 403 kts | 37° |
| 2026-04-11 22:43 | -2.03099 | -79.80303 | 23770 ft | 403 kts | 34° |
| 2026-04-11 22:43 | -2.00719 | -79.78834 | 23771 ft | 403 kts | 33° |
| 2026-04-11 22:43 | -1.98339 | -79.77335 | 23770 ft | 403 kts | 35° |
| 2026-04-11 22:44 | -1.96006 | -79.75787 | 23777 ft | 403 kts | 36° |
| 2026-04-11 22:44 | -1.93672 | -79.74242 | 23790 ft | 403 kts | 35° |
| 2026-04-11 22:44 | -1.91309 | -79.72725 | 23787 ft | 403 kts | 34° |
| 2026-04-11 22:44 | -1.88947 | -79.71215 | 23796 ft | 403 kts | 34° |
| 2026-04-11 22:45 | -1.86598 | -79.69686 | 23802 ft | 403 kts | 35° |
| 2026-04-11 22:45 | -1.84254 | -79.68153 | 23813 ft | 403 kts | 35° |
| 2026-04-11 22:45 | -1.81934 | -79.66649 | 23823 ft | 403 kts | 34° |
| 2026-04-11 22:45 | -1.79548 | -79.65110 | 23831 ft | 403 kts | 34° |
| 2026-04-11 22:46 | -1.77193 | -79.63584 | 23839 ft | 403 kts | 35° |
| 2026-04-11 22:46 | -1.74839 | -79.62052 | 23848 ft | 403 kts | 35° |
| 2026-04-11 22:46 | -1.72524 | -79.60551 | 23867 ft | 403 kts | 34° |
| 2026-04-11 22:46 | -1.70170 | -79.59028 | 23869 ft | 403 kts | 34° |
| 2026-04-11 22:47 | -1.67821 | -79.57505 | 23877 ft | 403 kts | 35° |
| 2026-04-11 22:47 | -1.65461 | -79.55974 | 23893 ft | 403 kts | 34° |
| 2026-04-11 22:47 | -1.63116 | -79.54453 | 23907 ft | 403 kts | 34° |
| 2026-04-11 22:47 | -1.60762 | -79.52928 | 23911 ft | 404 kts | 34° |
| 2026-04-11 22:48 | -1.58405 | -79.51401 | 23930 ft | 403 kts | 34° |
| 2026-04-11 22:48 | -1.56045 | -79.49870 | 23730 ft | 404 kts | 34° |
| 2026-04-11 22:48 | -1.53698 | -79.48348 | 23370 ft | 400 kts | 34° |
| 2026-04-11 22:48 | -1.51370 | -79.46838 | 23021 ft | 398 kts | 34° |
| 2026-04-11 22:49 | -1.49057 | -79.45337 | 22682 ft | 395 kts | 34° |
| 2026-04-11 22:49 | -1.46756 | -79.43843 | 22320 ft | 394 kts | 34° |
| 2026-04-11 22:49 | -1.44493 | -79.42375 | 21978 ft | 392 kts | 34° |
| 2026-04-11 22:49 | -1.42216 | -79.40900 | 21624 ft | 390 kts | 34° |
| 2026-04-11 22:50 | -1.39947 | -79.39427 | 21273 ft | 388 kts | 34° |
| 2026-04-11 22:50 | -1.37712 | -79.37976 | 20926 ft | 376 kts | 34° |
| 2026-04-11 22:50 | -1.35564 | -79.36584 | 20579 ft | 359 kts | 34° |
| 2026-04-11 22:50 | -1.33508 | -79.35252 | 20228 ft | 346 kts | 34° |
| 2026-04-11 22:51 | -1.31512 | -79.33956 | 19877 ft | 341 kts | 34° |
| 2026-04-11 22:51 | -1.29532 | -79.32670 | 19516 ft | 338 kts | 34° |
| 2026-04-11 22:51 | -1.27569 | -79.31394 | 19168 ft | 336 kts | 34° |
| 2026-04-11 22:51 | -1.25608 | -79.30124 | 18806 ft | 334 kts | 34° |
| 2026-04-11 22:52 | -1.23662 | -79.28864 | 18464 ft | 333 kts | 34° |
| 2026-04-11 22:52 | -1.21727 | -79.27609 | 18126 ft | 331 kts | 34° |
| 2026-04-11 22:52 | -1.19805 | -79.26361 | 18111 ft | 330 kts | 34° |
| 2026-04-11 22:52 | -1.17878 | -79.25113 | 18137 ft | 331 kts | 34° |
| 2026-04-11 22:53 | -1.15950 | -79.23860 | 18131 ft | 331 kts | 34° |
| 2026-04-11 22:53 | -1.14013 | -79.22600 | 18145 ft | 331 kts | 34° |
| 2026-04-11 22:53 | -1.12100 | -79.21364 | 18025 ft | 331 kts | 34° |
| 2026-04-11 22:53 | -1.10154 | -79.20107 | 17962 ft | 329 kts | 34° |
| 2026-04-11 22:54 | -1.08253 | -79.18870 | 17962 ft | 330 kts | 34° |
| 2026-04-11 22:54 | -1.06332 | -79.17622 | 17966 ft | 330 kts | 34° |
| 2026-04-11 22:54 | -1.04399 | -79.16374 | 17977 ft | 330 kts | 34° |
| 2026-04-11 22:54 | -1.02475 | -79.15125 | 17989 ft | 330 kts | 34° |
| 2026-04-11 22:55 | -0.98623 | -79.12621 | 17994 ft | 330 kts | 34° |
| 2026-04-11 22:55 | -0.96695 | -79.11378 | 18004 ft | 330 kts | 34° |
| 2026-04-11 22:55 | -0.94751 | -79.10115 | 18019 ft | 345 kts | 34° |
| 2026-04-11 22:56 | -0.92643 | -79.08741 | 18038 ft | 374 kts | 34° |
| 2026-04-11 22:56 | -0.90475 | -79.07338 | 18046 ft | 370 kts | 34° |
| 2026-04-11 22:56 | -0.88321 | -79.05947 | 18075 ft | 371 kts | 34° |
| 2026-04-11 22:56 | -0.86170 | -79.04547 | 18081 ft | 369 kts | 34° |
| 2026-04-11 22:57 | -0.84010 | -79.03144 | 18099 ft | 369 kts | 34° |
| 2026-04-11 22:57 | -0.81859 | -79.01749 | 18103 ft | 369 kts | 34° |
| 2026-04-11 22:57 | -0.79708 | -79.00338 | 18100 ft | 370 kts | 36° |
| 2026-04-11 22:57 | -0.77622 | -78.98843 | 18111 ft | 368 kts | 38° |
| 2026-04-11 22:58 | -0.75583 | -78.97293 | 18112 ft | 369 kts | 38° |
| 2026-04-11 22:58 | -0.73521 | -78.95770 | 18123 ft | 369 kts | 37° |
| 2026-04-11 22:58 | -0.71458 | -78.94304 | 18121 ft | 370 kts | 36° |
| 2026-04-11 22:58 | -0.69375 | -78.92803 | 18116 ft | 370 kts | 37° |
| 2026-04-11 22:59 | -0.67299 | -78.91285 | 18114 ft | 370 kts | 37° |
| 2026-04-11 22:59 | -0.65225 | -78.89769 | 18136 ft | 368 kts | 37° |
| 2026-04-11 22:59 | -0.63150 | -78.88260 | 18119 ft | 367 kts | 37° |
| 2026-04-11 22:59 | -0.61165 | -78.86830 | 18112 ft | 339 kts | 37° |
| 2026-04-11 23:00 | -0.59324 | -78.85500 | 18107 ft | 315 kts | 37° |
| 2026-04-11 23:00 | -0.57609 | -78.84249 | 18113 ft | 294 kts | 38° |
| 2026-04-11 23:00 | -0.56008 | -78.83082 | 18105 ft | 276 kts | 37° |
| 2026-04-11 23:00 | -0.54487 | -78.81982 | 18095 ft | 265 kts | 37° |
| 2026-04-11 23:01 | -0.53054 | -78.80836 | 17982 ft | 267 kts | 43° |
| 2026-04-11 23:01 | -0.51732 | -78.79546 | 17545 ft | 272 kts | 49° |
| 2026-04-11 23:01 | -0.50503 | -78.78091 | 16943 ft | 277 kts | 54° |
| 2026-04-11 23:01 | -0.49398 | -78.76497 | 16347 ft | 280 kts | 60° |
| 2026-04-11 23:02 | -0.48488 | -78.74878 | 16275 ft | 255 kts | 65° |
| 2026-04-11 23:02 | -0.47783 | -78.73317 | 16280 ft | 238 kts | 69° |
| 2026-04-11 23:02 | -0.47224 | -78.71783 | 15828 ft | 240 kts | 74° |
| 2026-04-11 23:02 | -0.46755 | -78.70086 | 14623 ft | 262 kts | 76° |
| 2026-04-11 23:03 | -0.46301 | -78.68276 | 13894 ft | 268 kts | 77° |
| 2026-04-11 23:03 | -0.45843 | -78.66492 | 13680 ft | 258 kts | 76° |
| 2026-04-11 23:03 | -0.45404 | -78.64818 | 13714 ft | 238 kts | 76° |
| 2026-04-11 23:03 | -0.44983 | -78.63306 | 13737 ft | 219 kts | 73° |
| 2026-04-11 23:04 | -0.44505 | -78.61922 | 13769 ft | 203 kts | 71° |
| 2026-04-11 23:04 | -0.43988 | -78.60662 | 13777 ft | 192 kts | 68° |
| 2026-04-11 23:04 | -0.43433 | -78.59466 | 13807 ft | 189 kts | 64° |
| 2026-04-11 23:04 | -0.42815 | -78.58312 | 13804 ft | 191 kts | 62° |
| 2026-04-11 23:05 | -0.42117 | -78.57149 | 13507 ft | 198 kts | 59° |
| 2026-04-11 23:05 | -0.41351 | -78.56005 | 13236 ft | 201 kts | 56° |
| 2026-04-11 23:05 | -0.40481 | -78.54906 | 12924 ft | 201 kts | 52° |
| 2026-04-11 23:05 | -0.39582 | -78.53879 | 12600 ft | 193 kts | 49° |
| 2026-04-11 23:06 | -0.38655 | -78.52923 | 12285 ft | 190 kts | 46° |
| 2026-04-11 23:06 | -0.37691 | -78.52024 | 11943 ft | 189 kts | 44° |
| 2026-04-11 23:06 | -0.36711 | -78.51203 | 11729 ft | 183 kts | 40° |
| 2026-04-11 23:06 | -0.35712 | -78.50439 | 11521 ft | 172 kts | 37° |
| 2026-04-11 23:07 | -0.34763 | -78.49786 | 11369 ft | 159 kts | 34° |
| 2026-04-11 23:07 | -0.33833 | -78.49216 | 11118 ft | 157 kts | 32° |
| 2026-04-11 23:07 | -0.32968 | -78.48560 | 10882 ft | 156 kts | 43° |
| 2026-04-11 23:07 | -0.32226 | -78.47787 | 10669 ft | 153 kts | 50° |
| 2026-04-11 23:08 | -0.31600 | -78.46938 | 10515 ft | 152 kts | 58° |
| 2026-04-11 23:08 | -0.31108 | -78.46006 | 10343 ft | 152 kts | 66° |
| 2026-04-11 23:08 | -0.30758 | -78.45021 | 10288 ft | 155 kts | 72° |
| 2026-04-11 23:08 | -0.30589 | -78.44327 | 10276 ft | 156 kts | 78° |
| 2026-04-11 23:09 | -0.30469 | -78.42886 | 10224 ft | 156 kts | 89° |
| 2026-04-11 23:09 | -0.30496 | -78.41801 | 10195 ft | 157 kts | 90° |
| 2026-04-11 23:09 | -0.30513 | -78.41081 | 10179 ft | 157 kts | 90° |
| 2026-04-11 23:09 | -0.30518 | -78.39999 | 10169 ft | 155 kts | 88° |
| 2026-04-11 23:10 | -0.30402 | -78.38929 | 10132 ft | 155 kts | 76° |
| 2026-04-11 23:10 | -0.30055 | -78.37912 | 10100 ft | 154 kts | 65° |
| 2026-04-11 23:10 | -0.29297 | -78.36720 | 10108 ft | 151 kts | 50° |
| 2026-04-11 23:10 | -0.28817 | -78.36225 | 10129 ft | 136 kts | 42° |
| 2026-04-11 23:11 | -0.28098 | -78.35687 | 10131 ft | 128 kts | 33° |
| 2026-04-11 23:11 | -0.27033 | -78.35161 | 10168 ft | 130 kts | 20° |
| 2026-04-11 23:11 | -0.26148 | -78.34943 | 10222 ft | 132 kts | 10° |
| 2026-04-11 23:11 | -0.25535 | -78.34882 | 10169 ft | 134 kts | 3° |
| 2026-04-11 23:12 | -0.24606 | -78.34914 | 10008 ft | 134 kts | 358° |
| 2026-04-11 23:12 | -0.23686 | -78.34960 | 9825 ft | 131 kts | 358° |
| 2026-04-11 23:12 | -0.22776 | -78.35007 | 9657 ft | 131 kts | 358° |
| 2026-04-11 23:12 | -0.21856 | -78.35040 | 9477 ft | 133 kts | 359° |
| 2026-04-11 23:13 | -0.20923 | -78.35078 | 9300 ft | 138 kts | 358° |
| 2026-04-11 23:13 | -0.19947 | -78.35120 | 9123 ft | 146 kts | 358° |
| 2026-04-11 23:13 | -0.18924 | -78.35165 | 8927 ft | 144 kts | 358° |
| 2026-04-11 23:13 | -0.17936 | -78.35211 | 8727 ft | 142 kts | 358° |
| 2026-04-11 23:14 | -0.16968 | -78.35250 | 8542 ft | 136 kts | 358° |
| 2026-04-11 23:14 | -0.16023 | -78.35285 | 8346 ft | 141 kts | 359° |
| 2026-04-11 23:14 | -0.15060 | -78.35327 | 8194 ft | 135 kts | 359° |
| 2026-04-11 23:14 | -0.14113 | -78.35367 | 8032 ft | 140 kts | 358° |
| 2026-04-11 23:15 | -0.13193 | -78.35403 | 8007 ft | 116 kts | 357° |
| 2026-04-11 23:15 | -0.12309 | -78.35454 | 8162 ft | 136 kts | 357° |
| 2026-04-11 23:15 | -0.11321 | -78.35523 | 8552 ft | 152 kts | 356° |
| 2026-04-11 23:15 | -0.10217 | -78.35616 | 9142 ft | 158 kts | 356° |
| 2026-04-11 23:16 | -0.09106 | -78.35620 | 9815 ft | 165 kts | 1° |
| 2026-04-11 23:16 | -0.07936 | -78.35624 | 10420 ft | 171 kts | 359° |
| 2026-04-11 23:16 | -0.06735 | -78.35677 | 11033 ft | 174 kts | 359° |
| 2026-04-11 23:16 | -0.05529 | -78.35730 | 11633 ft | 174 kts | 359° |
| 2026-04-11 23:17 | -0.04324 | -78.35782 | 12221 ft | 173 kts | 0° |
| 2026-04-11 23:17 | -0.03133 | -78.35836 | 12861 ft | 166 kts | 359° |
| 2026-04-11 23:17 | -0.01988 | -78.35883 | 13455 ft | 163 kts | 359° |
| 2026-04-11 23:17 | -0.00856 | -78.35932 | 13953 ft | 163 kts | 0° |
| 2026-04-11 23:18 | 0.00264 | -78.35981 | 14471 ft | 158 kts | 360° |
| 2026-04-11 23:18 | 0.01399 | -78.36014 | 14787 ft | 169 kts | 359° |
| 2026-04-11 23:18 | 0.02617 | -78.36075 | 15084 ft | 181 kts | 360° |
| 2026-04-11 23:18 | 0.03916 | -78.36130 | 15380 ft | 190 kts | 359° |
| 2026-04-11 23:19 | 0.05238 | -78.36190 | 15667 ft | 191 kts | 359° |
| 2026-04-11 23:19 | 0.06548 | -78.36411 | 15890 ft | 195 kts | 331° |
| 2026-04-11 23:19 | 0.07411 | -78.37427 | 15996 ft | 197 kts | 285° |
| 2026-04-11 23:19 | 0.07531 | -78.38754 | 16059 ft | 202 kts | 269° |
| 2026-04-11 23:20 | 0.07723 | -78.40220 | 16103 ft | 226 kts | 284° |
| 2026-04-11 23:20 | 0.08353 | -78.41728 | 16122 ft | 244 kts | 300° |
| 2026-04-11 23:20 | 0.09407 | -78.43060 | 16145 ft | 245 kts | 312° |
| 2026-04-11 23:20 | 0.10497 | -78.44375 | 16151 ft | 249 kts | 304° |
| 2026-04-11 23:21 | 0.11354 | -78.45927 | 16142 ft | 262 kts | 293° |
| 2026-04-11 23:21 | 0.12027 | -78.47656 | 16150 ft | 271 kts | 289° |
| 2026-04-11 23:21 | 0.12719 | -78.49404 | 16403 ft | 270 kts | 292° |
| 2026-04-11 23:21 | 0.13487 | -78.51132 | 16674 ft | 276 kts | 294° |
| 2026-04-11 23:22 | 0.14300 | -78.52957 | 16937 ft | 301 kts | 292° |
| 2026-04-11 23:22 | 0.15144 | -78.54879 | 17220 ft | 302 kts | 293° |
| 2026-04-11 23:22 | 0.16021 | -78.56783 | 17481 ft | 302 kts | 294° |
| 2026-04-11 23:22 | 0.16912 | -78.58683 | 17739 ft | 303 kts | 294° |
| 2026-04-11 23:23 | 0.17801 | -78.60602 | 17982 ft | 305 kts | 294° |
| 2026-04-11 23:23 | 0.18673 | -78.62505 | 17993 ft | 305 kts | 294° |
| 2026-04-11 23:23 | 0.19560 | -78.64429 | 17993 ft | 304 kts | 294° |
| 2026-04-11 23:23 | 0.20449 | -78.66347 | 17982 ft | 304 kts | 294° |
| 2026-04-11 23:24 | 0.21350 | -78.68262 | 17968 ft | 304 kts | 294° |
| 2026-04-11 23:24 | 0.22264 | -78.70160 | 17967 ft | 305 kts | 298° |
| 2026-04-11 23:24 | 0.23497 | -78.71885 | 17964 ft | 305 kts | 313° |
| 2026-04-11 23:24 | 0.25127 | -78.73238 | 17964 ft | 306 kts | 328° |
| 2026-04-11 23:25 | 0.27049 | -78.74129 | 17962 ft | 305 kts | 343° |
| 2026-04-11 23:25 | 0.29132 | -78.74497 | 17954 ft | 304 kts | 359° |
| 2026-04-11 23:25 | 0.31218 | -78.74269 | 17955 ft | 302 kts | 17° |
| 2026-04-11 23:25 | 0.33115 | -78.73407 | 17954 ft | 299 kts | 35° |
| 2026-04-11 23:26 | 0.34629 | -78.72007 | 17950 ft | 297 kts | 54° |
| 2026-04-11 23:26 | 0.35599 | -78.70244 | 17956 ft | 293 kts | 72° |
| 2026-04-11 23:26 | 0.35956 | -78.68253 | 17951 ft | 291 kts | 92° |
| 2026-04-11 23:26 | 0.35559 | -78.66290 | 17953 ft | 289 kts | 114° |
| 2026-04-11 23:27 | 0.34443 | -78.64642 | 17960 ft | 288 kts | 136° |
| 2026-04-11 23:27 | 0.32780 | -78.63553 | 17965 ft | 288 kts | 158° |
| 2026-04-11 23:27 | 0.30820 | -78.63187 | 17955 ft | 290 kts | 180° |
| 2026-04-11 23:27 | 0.28859 | -78.63607 | 17962 ft | 292 kts | 202° |
| 2026-04-11 23:28 | 0.27183 | -78.64755 | 17978 ft | 294 kts | 224° |
| 2026-04-11 23:28 | 0.25941 | -78.66389 | 17966 ft | 297 kts | 233° |
| 2026-04-11 23:28 | 0.24832 | -78.68092 | 18593 ft | 296 kts | 236° |
| 2026-04-11 23:28 | 0.23803 | -78.69893 | 19382 ft | 302 kts | 238° |
| 2026-04-11 23:29 | 0.22343 | -78.71410 | 19679 ft | 308 kts | 211° |
| 2026-04-11 23:29 | 0.20411 | -78.72092 | 19992 ft | 299 kts | 186° |
| 2026-04-11 23:29 | 0.18334 | -78.71998 | 20174 ft | 298 kts | 169° |
| 2026-04-11 23:29 | 0.16279 | -78.71630 | 20484 ft | 302 kts | 169° |
| 2026-04-11 23:30 | 0.14210 | -78.71256 | 20785 ft | 303 kts | 169° |
| 2026-04-11 23:30 | 0.12127 | -78.70883 | 21114 ft | 304 kts | 168° |
| 2026-04-11 23:30 | 0.10047 | -78.70464 | 21412 ft | 306 kts | 163° |
| 2026-04-11 23:30 | 0.08093 | -78.69629 | 21702 ft | 306 kts | 149° |
| 2026-04-11 23:31 | 0.06330 | -78.68407 | 21500 ft | 317 kts | 140° |
| 2026-04-11 23:31 | 0.04725 | -78.66862 | 20578 ft | 325 kts | 130° |
| 2026-04-11 23:31 | 0.03452 | -78.64984 | 19645 ft | 330 kts | 118° |
| 2026-04-11 23:31 | 0.02452 | -78.62902 | 18722 ft | 333 kts | 115° |
| 2026-04-11 23:32 | 0.01492 | -78.60828 | 18021 ft | 328 kts | 117° |
| 2026-04-11 23:32 | 0.00459 | -78.58902 | 18013 ft | 303 kts | 120° |
| 2026-04-11 23:32 | -0.00560 | -78.57146 | 18015 ft | 282 kts | 120° |
| 2026-04-11 23:32 | -0.01483 | -78.55488 | 18030 ft | 264 kts | 119° |
| 2026-04-11 23:33 | -0.02318 | -78.53926 | 18035 ft | 247 kts | 119° |
| 2026-04-11 23:33 | -0.03108 | -78.52463 | 18010 ft | 232 kts | 120° |
| 2026-04-11 23:33 | -0.03952 | -78.51093 | 18029 ft | 233 kts | 129° |
| 2026-04-11 23:33 | -0.05207 | -78.50091 | 17979 ft | 233 kts | 158° |
| 2026-04-11 23:34 | -0.06816 | -78.50038 | 17995 ft | 236 kts | 194° |
| 2026-04-11 23:34 | -0.08377 | -78.50597 | 17988 ft | 239 kts | 196° |
| 2026-04-11 23:34 | -0.09995 | -78.50908 | 17993 ft | 237 kts | 182° |
| 2026-04-11 23:34 | -0.11625 | -78.50774 | 17990 ft | 235 kts | 164° |
| 2026-04-11 23:35 | -0.13178 | -78.50271 | 17999 ft | 235 kts | 162° |
| 2026-04-11 23:35 | -0.14781 | -78.49935 | 17995 ft | 236 kts | 172° |
| 2026-04-11 23:35 | -0.16421 | -78.49837 | 17938 ft | 237 kts | 177° |
| 2026-04-11 23:35 | -0.18040 | -78.49764 | 17810 ft | 236 kts | 175° |
| 2026-04-11 23:36 | -0.19673 | -78.49630 | 17661 ft | 235 kts | 173° |
| 2026-04-11 23:36 | -0.21295 | -78.49487 | 17509 ft | 234 kts | 174° |
| 2026-04-11 23:36 | -0.22917 | -78.49360 | 17357 ft | 234 kts | 174° |
| 2026-04-11 23:36 | -0.24534 | -78.49239 | 17214 ft | 233 kts | 174° |
| 2026-04-11 23:37 | -0.26143 | -78.49104 | 17067 ft | 233 kts | 174° |
| 2026-04-11 23:37 | -0.27759 | -78.48976 | 16911 ft | 232 kts | 174° |
| 2026-04-11 23:37 | -0.29366 | -78.48851 | 16760 ft | 232 kts | 174° |
| 2026-04-11 23:37 | -0.30976 | -78.48724 | 16566 ft | 232 kts | 174° |
| 2026-04-11 23:38 | -0.32580 | -78.48597 | 16340 ft | 231 kts | 174° |
| 2026-04-11 23:38 | -0.34185 | -78.48470 | 15987 ft | 232 kts | 174° |
| 2026-04-11 23:38 | -0.35774 | -78.48268 | 15485 ft | 228 kts | 163° |
| 2026-04-11 23:38 | -0.37201 | -78.47620 | 14985 ft | 225 kts | 150° |
| 2026-04-11 23:39 | -0.38534 | -78.46820 | 14527 ft | 222 kts | 145° |
| 2026-04-11 23:39 | -0.39762 | -78.45891 | 14110 ft | 220 kts | 139° |
| 2026-04-11 23:39 | -0.40853 | -78.44878 | 14018 ft | 215 kts | 133° |
| 2026-04-11 23:39 | -0.41836 | -78.43779 | 13994 ft | 212 kts | 128° |
| 2026-04-11 23:40 | -0.42500 | -78.42483 | 14015 ft | 212 kts | 104° |
| 2026-04-11 23:40 | -0.42549 | -78.41006 | 14000 ft | 215 kts | 79° |
| 2026-04-11 23:40 | -0.41951 | -78.39637 | 14008 ft | 219 kts | 56° |
| 2026-04-11 23:40 | -0.40802 | -78.38641 | 14028 ft | 221 kts | 31° |
| 2026-04-11 23:41 | -0.39379 | -78.38025 | 13894 ft | 225 kts | 21° |
| 2026-04-11 23:41 | -0.37902 | -78.37532 | 13534 ft | 221 kts | 20° |
| 2026-04-11 23:41 | -0.36485 | -78.37038 | 13157 ft | 212 kts | 22° |
| 2026-04-11 23:41 | -0.35083 | -78.36505 | 12384 ft | 219 kts | 23° |
| 2026-04-11 23:42 | -0.33651 | -78.35960 | 11593 ft | 222 kts | 22° |
| 2026-04-11 23:42 | -0.32199 | -78.35423 | 10915 ft | 219 kts | 21° |
| 2026-04-11 23:42 | -0.30821 | -78.34921 | 10526 ft | 205 kts | 20° |
| 2026-04-11 23:43 | -0.28120 | -78.34735 | 9989 ft | 191 kts | 355° |
| 2026-04-11 23:43 | -0.26898 | -78.34827 | 10008 ft | 166 kts | 357° |
| 2026-04-11 23:43 | -0.24624 | -78.34923 | 9987 ft | 162 kts | 358° |
| 2026-04-11 23:44 | -0.23494 | -78.34965 | 9871 ft | 156 kts | 358° |
| 2026-04-11 23:44 | -0.22490 | -78.35010 | 9691 ft | 134 kts | 358° |
| 2026-04-11 23:44 | -0.21583 | -78.35049 | 9479 ft | 128 kts | 358° |
| 2026-04-11 23:44 | -0.20702 | -78.35087 | 9312 ft | 126 kts | 359° |
| 2026-04-11 23:45 | -0.19819 | -78.35122 | 9145 ft | 128 kts | 358° |
| 2026-04-11 23:45 | -0.18934 | -78.35160 | 8978 ft | 127 kts | 359° |
| 2026-04-11 23:45 | -0.18048 | -78.35191 | 8790 ft | 126 kts | 360° |
| 2026-04-11 23:45 | -0.17183 | -78.35239 | 8607 ft | 127 kts | 355° |
| 2026-04-11 23:46 | -0.16297 | -78.35291 | 8426 ft | 124 kts | 360° |
| 2026-04-11 23:46 | -0.15443 | -78.35306 | 8293 ft | 126 kts | 358° |
| 2026-04-11 23:46 | -0.14589 | -78.35348 | 8112 ft | 119 kts | 356° |
| 2026-04-11 23:46 | -0.13792 | -78.35385 | 8013 ft | 100 kts | 356° |
| 2026-04-11 23:47 | -0.13210 | -78.35378 | 7992 ft | 70 kts | 17° |